createdAt,value
2022-08-17T00:01:52.051Z,25.20
2022-08-17T00:04:19.857Z,25.20
2022-08-17T00:06:48.651Z,25.20
2022-08-17T00:09:18.428Z,25.20
2022-08-17T00:12:40.798Z,25.20
2022-08-17T00:14:36.444Z,25.20
2022-08-17T00:17:06.860Z,25.20
2022-08-17T00:19:34.115Z,25.20
2022-08-17T00:22:35.265Z,25.20
2022-08-17T00:24:50.051Z,25.20
2022-08-17T00:27:17.271Z,25.00
2022-08-17T00:29:45.880Z,25.00
2022-08-17T00:33:11.652Z,24.90
2022-08-17T00:35:06.726Z,24.80
2022-08-17T00:37:33.700Z,24.80
2022-08-17T00:40:00.694Z,24.80
2022-08-17T00:42:30.939Z,24.70
2022-08-17T00:44:58.574Z,24.70
2022-08-17T00:47:25.715Z,24.70
2022-08-17T00:49:52.766Z,24.60
2022-08-17T00:52:24.879Z,24.70
2022-08-17T00:54:54.862Z,24.70
2022-08-17T00:57:32.867Z,24.70
2022-08-17T01:00:04.012Z,24.60
2022-08-17T01:02:42.800Z,24.70
2022-08-17T01:05:18.644Z,24.70
2022-08-17T01:07:48.339Z,24.60
2022-08-17T01:11:00.477Z,24.60
2022-08-17T01:13:03.644Z,24.70
2022-08-17T01:15:31.832Z,24.60
2022-08-17T01:17:58.715Z,24.60
2022-08-17T01:20:25.493Z,24.60
2022-08-17T01:22:52.615Z,24.60
2022-08-17T01:25:20.374Z,24.60
2022-08-17T01:27:47.947Z,24.50
2022-08-17T01:30:58.911Z,24.50
2022-08-17T01:33:02.542Z,24.50
2022-08-17T01:35:29.313Z,24.50
2022-08-17T01:37:56.092Z,24.50
2022-08-17T01:40:48.366Z,24.50
2022-08-17T01:43:34.569Z,24.50
2022-08-17T01:46:03.472Z,24.50
2022-08-17T01:48:33.721Z,24.60
2022-08-17T01:51:00.924Z,24.60
2022-08-17T01:53:36.204Z,24.60
2022-08-17T01:56:11.256Z,24.60
2022-08-17T01:58:39.791Z,24.50
2022-08-17T02:01:08.526Z,24.50
2022-08-17T02:03:36.691Z,24.50
2022-08-17T02:06:05.378Z,24.50
2022-08-17T02:08:39.130Z,24.50
2022-08-17T02:11:22.545Z,24.50
2022-08-17T02:13:58.320Z,24.50
2022-08-17T02:16:36.859Z,24.40
2022-08-17T02:19:12.534Z,24.40
2022-08-17T02:21:40.731Z,24.50
2022-08-17T02:24:09.079Z,24.50
2022-08-17T02:26:35.859Z,24.50
2022-08-17T02:29:04.089Z,24.50
2022-08-17T02:31:31.285Z,24.50
2022-08-17T02:34:03.993Z,24.50
2022-08-17T02:36:36.103Z,24.50
2022-08-17T02:39:06.181Z,24.50
2022-08-17T02:41:33.154Z,24.40
2022-08-17T02:44:00.688Z,24.40
2022-08-17T02:46:28.334Z,24.30
2022-08-17T02:48:55.198Z,24.30
2022-08-17T02:51:22.389Z,24.30
2022-08-17T02:53:49.218Z,24.20
2022-08-17T02:56:16.206Z,24.20
2022-08-17T02:58:43.032Z,24.20
2022-08-17T03:01:10.875Z,24.20
2022-08-17T03:03:39.009Z,24.10
2022-08-17T03:06:06.170Z,24.10
2022-08-17T03:08:33.390Z,24.10
2022-08-17T03:11:00.526Z,24.10
2022-08-17T03:13:27.621Z,24.10
2022-08-17T03:15:54.529Z,24.10
2022-08-17T03:18:24.804Z,24.10
2022-08-17T03:20:57.983Z,24.20
2022-08-17T03:23:25.808Z,24.20
2022-08-17T03:25:55.145Z,24.20
2022-08-17T03:28:23.483Z,24.20
2022-08-17T03:30:51.410Z,24.20
2022-08-17T03:33:19.211Z,24.20
2022-08-17T03:35:46.467Z,24.10
2022-08-17T03:38:15.035Z,24.10
2022-08-17T03:40:56.674Z,24.10
2022-08-17T03:43:30.906Z,24.10
2022-08-17T03:46:34.723Z,24.20
2022-08-17T03:49:25.470Z,24.10
2022-08-17T03:52:12.877Z,24.10
2022-08-17T03:54:59.026Z,24.10
2022-08-17T03:57:26.421Z,24.10
2022-08-17T03:59:54.518Z,24.10
2022-08-17T04:02:25.439Z,24.10
2022-08-17T04:04:52.678Z,24.10
2022-08-17T04:07:22.256Z,24.10
2022-08-17T04:09:49.401Z,24.20
2022-08-17T04:12:18.635Z,24.20
2022-08-17T04:14:52.854Z,24.20
2022-08-17T04:17:25.883Z,24.20
2022-08-17T04:19:53.692Z,24.20
2022-08-17T04:22:30.292Z,24.10
2022-08-17T04:25:09.375Z,24.10
2022-08-17T04:27:36.413Z,24.10
2022-08-17T04:30:07.249Z,24.10
2022-08-17T04:33:09.880Z,24.10
2022-08-17T04:35:40.243Z,24.10
2022-08-17T04:38:08.623Z,24.20
2022-08-17T04:40:54.177Z,24.20
2022-08-17T04:43:24.094Z,24.20
2022-08-17T04:45:57.370Z,24.20
2022-08-17T04:48:47.817Z,24.20
2022-08-17T04:51:24.657Z,24.10
2022-08-17T04:53:54.435Z,24.20
2022-08-17T04:56:25.116Z,24.10
2022-08-17T04:58:54.433Z,24.20
2022-08-17T05:01:24.754Z,24.20
2022-08-17T05:03:58.978Z,24.20
2022-08-17T05:06:27.836Z,24.20
2022-08-17T05:08:55.519Z,24.20
2022-08-17T05:11:23.774Z,24.20
2022-08-17T05:13:50.654Z,24.20
2022-08-17T05:16:18.452Z,24.30
2022-08-17T05:18:45.515Z,24.30
2022-08-17T05:21:12.863Z,24.30
2022-08-17T05:23:43.087Z,24.30
2022-08-17T05:26:19.827Z,24.40
2022-08-17T05:28:52.784Z,24.40
2022-08-17T05:31:21.195Z,24.40
2022-08-17T05:33:49.484Z,24.40
2022-08-17T05:36:42.079Z,24.40
2022-08-17T05:39:03.971Z,24.40
2022-08-17T05:41:30.764Z,24.50
2022-08-17T05:43:57.583Z,24.50
2022-08-17T05:46:28.740Z,24.50
2022-08-17T05:49:03.456Z,24.50
2022-08-17T05:51:55.721Z,24.60
2022-08-17T05:54:48.384Z,24.60
2022-08-17T05:57:17.862Z,24.60
2022-08-17T06:00:14.517Z,24.60
2022-08-17T06:03:09.937Z,24.70
2022-08-17T06:06:15.691Z,24.70
2022-08-17T06:09:22.815Z,24.70
2022-08-17T06:11:55.345Z,24.80
2022-08-17T06:14:40.733Z,24.80
2022-08-17T06:17:12.739Z,24.80
2022-08-17T06:19:51.593Z,24.90
2022-08-17T06:22:22.029Z,24.90
2022-08-17T06:24:54.216Z,24.90
2022-08-17T06:27:41.940Z,25.00
2022-08-17T06:30:16.920Z,25.00
2022-08-17T06:32:46.275Z,25.00
2022-08-17T06:35:17.408Z,25.10
2022-08-17T06:38:08.553Z,25.20
2022-08-17T06:41:07.492Z,25.20
2022-08-17T06:43:59.036Z,25.20
2022-08-17T06:46:35.958Z,25.30
2022-08-17T06:49:25.922Z,25.30
2022-08-17T06:51:58.219Z,25.40
2022-08-17T06:54:45.859Z,25.40
2022-08-17T06:57:15.241Z,25.40
2022-08-17T06:59:55.163Z,25.50
2022-08-17T07:02:52.573Z,25.50
2022-08-17T07:05:33.892Z,25.50
2022-08-17T07:08:30.462Z,25.60
2022-08-17T07:11:08.699Z,25.60
2022-08-17T07:13:57.465Z,25.60
2022-08-17T07:16:30.841Z,25.70
2022-08-17T07:18:59.458Z,25.80
2022-08-17T07:21:34.288Z,25.80
2022-08-17T07:24:28.104Z,25.80
2022-08-17T07:27:08.142Z,25.80
2022-08-17T07:29:41.367Z,25.90
2022-08-17T07:32:09.987Z,25.90
2022-08-17T07:35:10.723Z,26.00
2022-08-17T07:37:40.162Z,26.10
2022-08-17T07:40:21.065Z,26.10
2022-08-17T07:43:11.495Z,26.10
2022-08-17T07:46:16.360Z,26.20
2022-08-17T07:48:49.681Z,26.20
2022-08-17T07:51:27.118Z,26.20
2022-08-17T07:54:18.489Z,26.30
2022-08-17T07:57:01.488Z,26.30
2022-08-17T07:59:41.813Z,26.40
2022-08-17T08:02:21.865Z,26.40
2022-08-17T08:05:49.785Z,26.50
2022-08-17T08:08:30.180Z,26.50
2022-08-17T08:11:07.161Z,26.60
2022-08-17T08:13:35.234Z,26.70
2022-08-17T08:16:14.103Z,26.70
2022-08-17T08:18:55.741Z,26.80
2022-08-17T08:21:48.734Z,26.80
2022-08-17T08:24:41.296Z,26.90
2022-08-17T08:27:29.092Z,27.00
2022-08-17T08:29:55.914Z,27.00
2022-08-17T08:32:54.101Z,27.00
2022-08-17T08:35:44.167Z,27.10
2022-08-17T08:38:39.249Z,27.20
2022-08-17T08:41:26.376Z,27.20
2022-08-17T08:44:13.566Z,27.20
2022-08-17T08:47:23.213Z,27.30
2022-08-17T08:50:37.120Z,27.30
2022-08-17T08:53:14.426Z,27.30
2022-08-17T08:56:00.591Z,27.40
2022-08-17T08:59:01.263Z,27.40
2022-08-17T09:01:45.032Z,27.40
2022-08-17T09:05:02.594Z,27.40
2022-08-17T09:07:41.365Z,27.50
2022-08-17T09:10:25.984Z,27.60
2022-08-17T09:13:14.943Z,27.60
2022-08-17T09:15:48.161Z,27.60
2022-08-17T09:19:00.150Z,27.60
2022-08-17T09:21:18.199Z,27.70
2022-08-17T09:24:06.291Z,27.70
2022-08-17T09:27:00.584Z,27.70
2022-08-17T09:29:35.100Z,27.70
2022-08-17T09:32:14.876Z,27.70
2022-08-17T09:34:54.870Z,27.80
2022-08-17T09:37:30.954Z,27.90
2022-08-17T09:40:21.229Z,27.90
2022-08-17T09:42:53.419Z,27.90
2022-08-17T09:45:42.837Z,28.00
2022-08-17T09:48:23.430Z,28.00
2022-08-17T09:51:13.780Z,28.00
2022-08-17T09:53:41.455Z,28.00
2022-08-17T09:56:20.217Z,28.00
2022-08-17T09:59:22.253Z,28.10
2022-08-17T10:02:05.951Z,28.10
2022-08-17T10:04:40.857Z,28.10
2022-08-17T10:07:13.208Z,28.20
2022-08-17T10:10:18.014Z,28.30
2022-08-17T10:13:20.854Z,28.30
2022-08-17T10:16:03.456Z,28.40
2022-08-17T10:19:08.225Z,28.40
2022-08-17T10:22:00.679Z,28.40
2022-08-17T10:25:21.560Z,28.50
2022-08-17T10:27:52.663Z,28.50
2022-08-17T10:30:22.799Z,28.50
2022-08-17T10:32:56.934Z,28.50
2022-08-17T10:35:47.520Z,28.50
2022-08-17T10:38:37.058Z,28.60
2022-08-17T10:41:24.183Z,28.60
2022-08-17T10:44:40.456Z,28.60
2022-08-17T10:46:54.333Z,28.70
2022-08-17T10:49:21.205Z,28.70
2022-08-17T10:52:00.203Z,28.70
2022-08-17T10:54:46.947Z,28.70
2022-08-17T10:57:39.201Z,28.80
2022-08-17T11:00:08.874Z,28.80
2022-08-17T11:02:54.949Z,28.90
2022-08-17T11:05:44.233Z,28.90
2022-08-17T11:08:32.051Z,28.90
2022-08-17T11:11:09.973Z,29.00
2022-08-17T11:13:54.698Z,28.90
2022-08-17T11:16:53.705Z,29.00
2022-08-17T11:19:32.143Z,29.00
2022-08-17T11:22:31.304Z,29.00
2022-08-17T11:25:16.651Z,29.10
2022-08-17T11:27:45.713Z,29.10
2022-08-17T11:30:34.774Z,29.10
2022-08-17T11:33:34.091Z,29.10
2022-08-17T11:36:24.408Z,29.00
2022-08-17T11:39:06.236Z,29.10
2022-08-17T11:42:12.294Z,29.10
2022-08-17T11:44:39.097Z,29.10
2022-08-17T11:48:23.690Z,29.10
2022-08-17T11:51:33.719Z,29.20
2022-08-17T11:54:34.451Z,29.30
2022-08-17T11:57:26.450Z,29.40
2022-08-17T11:59:55.681Z,29.50
2022-08-17T12:02:31.459Z,29.50
2022-08-17T12:05:17.474Z,29.50
2022-08-17T12:07:52.124Z,29.70
2022-08-17T12:10:23.516Z,29.70
2022-08-17T12:12:54.048Z,29.70
2022-08-17T12:15:28.779Z,29.70
2022-08-17T12:17:57.920Z,29.80
2022-08-17T12:20:38.378Z,29.80
2022-08-17T12:23:11.114Z,29.80
2022-08-17T12:25:57.144Z,29.80
2022-08-17T12:28:33.550Z,29.70
2022-08-17T12:31:13.643Z,29.70
2022-08-17T12:33:44.422Z,29.60
2022-08-17T12:36:15.979Z,29.60
2022-08-17T12:39:14.564Z,29.60
2022-08-17T12:41:51.111Z,29.60
2022-08-17T12:44:25.190Z,29.60
2022-08-17T12:47:21.904Z,29.60
2022-08-17T12:49:52.253Z,29.60
2022-08-17T12:52:32.836Z,29.50
2022-08-17T12:55:06.970Z,29.50
2022-08-17T12:57:39.737Z,29.50
2022-08-17T13:00:30.336Z,29.40
2022-08-17T13:03:36.600Z,29.50
2022-08-17T13:06:09.527Z,29.50
2022-08-17T13:08:48.097Z,29.50
2022-08-17T13:11:16.112Z,29.50
2022-08-17T13:13:46.869Z,29.60
2022-08-17T13:16:14.453Z,29.50
2022-08-17T13:18:43.008Z,29.50
2022-08-17T13:21:26.979Z,29.50
2022-08-17T13:24:17.353Z,29.50
2022-08-17T13:26:57.320Z,29.50
2022-08-17T13:29:28.983Z,29.50
2022-08-17T13:32:13.468Z,29.50
2022-08-17T13:35:12.433Z,29.50
2022-08-17T13:37:37.482Z,29.50
2022-08-17T13:40:10.762Z,29.50
2022-08-17T13:42:51.799Z,29.50
2022-08-17T13:45:38.866Z,29.50
2022-08-17T13:48:06.474Z,29.60
2022-08-17T13:50:33.574Z,29.60
2022-08-17T13:53:00.656Z,29.60
2022-08-17T13:55:29.520Z,29.60
2022-08-17T13:58:03.898Z,29.60
2022-08-17T14:00:35.487Z,29.60
2022-08-17T14:03:04.325Z,29.60
2022-08-17T14:05:32.140Z,29.60
2022-08-17T14:08:02.516Z,29.60
2022-08-17T14:10:36.422Z,29.60
2022-08-17T14:13:03.775Z,29.60
2022-08-17T14:15:54.966Z,29.70
2022-08-17T14:18:18.993Z,29.70
2022-08-17T14:21:08.362Z,29.70
2022-08-17T14:23:36.872Z,29.70
2022-08-17T14:26:03.921Z,29.70
2022-08-17T14:28:30.821Z,29.70
2022-08-17T14:31:00.355Z,29.70
2022-08-17T14:33:28.384Z,29.80
2022-08-17T14:35:57.528Z,29.90
2022-08-17T14:38:24.674Z,29.90
2022-08-17T14:40:51.940Z,30.00
2022-08-17T14:43:18.860Z,30.00
2022-08-17T14:45:45.627Z,30.00
2022-08-17T14:48:12.815Z,29.90
2022-08-17T14:50:41.927Z,29.90
2022-08-17T14:53:15.067Z,29.80
2022-08-17T14:55:42.569Z,29.80
2022-08-17T14:58:09.493Z,29.70
2022-08-17T15:00:36.892Z,29.70
2022-08-17T15:03:04.062Z,29.70
2022-08-17T15:05:34.239Z,29.60
2022-08-17T15:08:02.436Z,29.60
2022-08-17T15:10:30.193Z,29.60
2022-08-17T15:12:57.790Z,29.60
2022-08-17T15:15:24.959Z,29.60
2022-08-17T15:17:52.218Z,29.50
2022-08-17T15:20:22.875Z,29.50
2022-08-17T15:22:50.715Z,29.50
2022-08-17T15:25:18.986Z,29.50
2022-08-17T15:27:46.292Z,29.50
2022-08-17T15:30:13.566Z,29.50
2022-08-17T15:32:51.196Z,29.50
2022-08-17T15:35:27.255Z,29.50
2022-08-17T15:38:11.269Z,29.50
2022-08-17T15:40:51.018Z,29.50
2022-08-17T15:43:27.931Z,29.50
2022-08-17T15:46:17.290Z,29.50
2022-08-17T15:48:47.125Z,29.50
2022-08-17T15:51:24.593Z,29.50
2022-08-17T15:54:17.115Z,29.50
2022-08-17T15:56:49.499Z,29.60
2022-08-17T15:59:16.335Z,29.60
2022-08-17T16:03:06.206Z,29.60
2022-08-17T16:04:31.840Z,29.60
2022-08-17T16:07:00.007Z,29.60
2022-08-17T16:09:27.217Z,29.60
2022-08-17T16:11:56.142Z,29.50
2022-08-17T16:14:32.381Z,29.60
2022-08-17T16:17:03.140Z,29.50
2022-08-17T16:19:29.991Z,29.50
2022-08-17T16:21:56.951Z,29.50
2022-08-17T16:24:23.721Z,29.50
2022-08-17T16:26:50.688Z,29.50
2022-08-17T16:29:17.844Z,29.50
2022-08-17T16:31:44.608Z,29.50
2022-08-17T16:34:18.101Z,29.50
2022-08-17T16:36:51.752Z,29.50
2022-08-17T16:39:29.334Z,29.50
2022-08-17T16:41:57.455Z,29.50
2022-08-17T16:44:25.760Z,29.40
2022-08-17T16:46:52.641Z,29.40
2022-08-17T16:49:35.658Z,29.50
2022-08-17T16:52:06.183Z,29.50
2022-08-17T16:54:35.458Z,29.40
2022-08-17T16:57:05.057Z,29.40
2022-08-17T16:59:40.962Z,29.40
2022-08-17T17:02:12.560Z,29.40
2022-08-17T17:04:49.371Z,29.40
2022-08-17T17:07:43.720Z,29.30
2022-08-17T17:10:15.036Z,29.30
2022-08-17T17:13:02.090Z,29.30
2022-08-17T17:15:39.572Z,29.40
2022-08-17T17:18:11.117Z,29.30
2022-08-17T17:20:49.783Z,29.30
2022-08-17T17:23:36.241Z,29.30
2022-08-17T17:26:13.409Z,29.30
2022-08-17T17:29:04.340Z,29.20
2022-08-17T17:31:45.276Z,29.20
2022-08-17T17:34:16.571Z,29.30
2022-08-17T17:36:51.920Z,29.20
2022-08-17T17:39:31.884Z,29.20
2022-08-17T17:42:03.578Z,29.20
2022-08-17T17:44:56.584Z,29.20
2022-08-17T17:47:23.630Z,29.20
2022-08-17T17:49:50.606Z,29.20
2022-08-17T17:52:38.204Z,29.20
2022-08-17T17:55:18.450Z,29.20
2022-08-17T17:58:11.581Z,29.20
2022-08-17T18:01:16.557Z,29.20
2022-08-17T18:03:59.030Z,29.20
2022-08-17T18:06:45.445Z,29.10
2022-08-17T18:09:35.685Z,29.10
2022-08-17T18:12:31.423Z,29.10
2022-08-17T18:15:03.777Z,29.10
2022-08-17T18:17:31.119Z,29.10
2022-08-17T18:19:58.077Z,29.10
2022-08-17T18:22:26.289Z,29.00
2022-08-17T18:24:58.248Z,29.00
2022-08-17T18:27:40.826Z,29.00
2022-08-17T18:30:13.813Z,28.90
2022-08-17T18:32:43.560Z,28.90
2022-08-17T18:35:10.353Z,28.90
2022-08-17T18:37:47.717Z,28.80
2022-08-17T18:40:17.581Z,28.80
2022-08-17T18:43:00.194Z,28.80
2022-08-17T18:45:34.779Z,28.70
2022-08-17T18:48:02.865Z,28.70
2022-08-17T18:50:39.563Z,28.70
2022-08-17T18:53:34.888Z,28.70
2022-08-17T18:56:20.315Z,28.70
2022-08-17T18:59:21.652Z,28.70
2022-08-17T19:02:11.610Z,28.60
2022-08-17T19:05:01.663Z,28.60
2022-08-17T19:07:39.283Z,28.60
2022-08-17T19:10:14.991Z,28.60
2022-08-17T19:13:12.697Z,28.50
2022-08-17T19:16:05.303Z,28.50
2022-08-17T19:18:42.801Z,28.50
2022-08-17T19:21:29.698Z,28.50
2022-08-17T19:24:10.797Z,28.50
2022-08-17T19:26:54.826Z,28.40
2022-08-17T19:29:50.736Z,28.40
2022-08-17T19:32:24.439Z,28.40
2022-08-17T19:34:52.232Z,28.40
2022-08-17T19:37:36.855Z,28.40
2022-08-17T19:40:51.098Z,28.40
2022-08-17T19:43:35.461Z,28.40
2022-08-17T19:46:11.985Z,28.30
2022-08-17T19:49:16.320Z,28.30
2022-08-17T19:52:26.137Z,28.40
2022-08-17T19:54:59.697Z,28.30
2022-08-17T19:58:17.936Z,28.30
2022-08-17T20:00:50.933Z,28.30
2022-08-17T20:03:35.421Z,28.30
2022-08-17T20:06:13.088Z,28.20
2022-08-17T20:08:59.532Z,28.30
2022-08-17T20:11:45.467Z,28.20
2022-08-17T20:14:15.669Z,28.20
2022-08-17T20:16:42.558Z,28.20
2022-08-17T20:19:44.662Z,28.20
2022-08-17T20:22:20.680Z,28.20
2022-08-17T20:25:31.883Z,28.20
2022-08-17T20:28:35.241Z,28.20
2022-08-17T20:31:03.020Z,28.10
2022-08-17T20:33:33.746Z,28.10
2022-08-17T20:36:20.557Z,28.10
2022-08-17T20:38:58.829Z,28.10
2022-08-17T20:41:28.848Z,28.10
2022-08-17T20:43:59.027Z,28.00
2022-08-17T20:46:34.843Z,28.00
2022-08-17T20:49:49.834Z,28.00
2022-08-17T20:52:48.480Z,28.00
2022-08-17T20:55:33.826Z,28.00
2022-08-17T20:58:15.830Z,27.90
2022-08-17T21:00:56.437Z,27.90
2022-08-17T21:03:23.718Z,27.90
2022-08-17T21:06:00.422Z,27.90
2022-08-17T21:08:43.735Z,27.80
2022-08-17T21:11:57.001Z,27.80
2022-08-17T21:14:33.637Z,27.80
2022-08-17T21:17:36.464Z,27.80
2022-08-17T21:20:23.931Z,27.80
2022-08-17T21:23:09.271Z,27.70
2022-08-17T21:25:57.748Z,27.70
2022-08-17T21:29:00.359Z,27.70
2022-08-17T21:31:28.354Z,27.70
2022-08-17T21:34:24.483Z,27.70
2022-08-17T21:36:51.534Z,27.60
2022-08-17T21:39:33.045Z,27.60
2022-08-17T21:42:00.753Z,27.60
2022-08-17T21:44:36.845Z,27.60
2022-08-17T21:47:25.925Z,27.60
2022-08-17T21:49:54.955Z,27.60
2022-08-17T21:52:26.873Z,27.50
2022-08-17T21:55:02.402Z,27.60
2022-08-17T21:57:30.058Z,27.50
2022-08-17T22:00:00.750Z,27.50
2022-08-17T22:02:32.341Z,27.50
2022-08-17T22:05:08.459Z,27.40
2022-08-17T22:07:35.249Z,27.40
2022-08-17T22:10:02.385Z,27.40
2022-08-17T22:12:29.848Z,27.40
2022-08-17T22:15:04.107Z,27.40
2022-08-17T22:17:45.159Z,27.40
2022-08-17T22:20:19.088Z,27.30
2022-08-17T22:23:04.277Z,27.30
2022-08-17T22:25:35.915Z,27.30
2022-08-17T22:28:11.463Z,27.30
2022-08-17T22:30:39.532Z,27.30
2022-08-17T22:33:25.167Z,27.30
2022-08-17T22:36:12.645Z,27.30
2022-08-17T22:38:41.353Z,27.20
2022-08-17T22:41:31.758Z,27.30
2022-08-17T22:44:31.629Z,27.30
2022-08-17T22:47:00.664Z,27.20
2022-08-17T22:49:34.141Z,27.20
2022-08-17T22:52:32.365Z,27.20
2022-08-17T22:55:33.307Z,27.20
2022-08-17T22:58:19.970Z,27.10
2022-08-17T23:00:49.030Z,27.10
2022-08-17T23:03:25.559Z,27.10
2022-08-17T23:06:06.221Z,27.10
2022-08-17T23:08:35.703Z,27.10
2022-08-17T23:11:02.877Z,27.10
2022-08-17T23:13:31.949Z,27.10
2022-08-17T23:15:58.792Z,27.00
2022-08-17T23:18:27.333Z,27.00
2022-08-17T23:20:54.445Z,27.00
2022-08-17T23:23:23.890Z,27.00
2022-08-17T23:25:50.943Z,27.00
2022-08-17T23:28:18.088Z,27.00
2022-08-17T23:30:48.448Z,27.00
2022-08-17T23:33:30.411Z,27.00
2022-08-17T23:35:58.838Z,27.00
2022-08-17T23:38:29.275Z,26.90
2022-08-17T23:40:59.984Z,26.90
2022-08-17T23:43:28.333Z,26.90
2022-08-17T23:45:57.913Z,26.90
2022-08-17T23:48:32.573Z,26.90
2022-08-17T23:51:05.824Z,26.80
2022-08-17T23:53:34.880Z,26.80
2022-08-17T23:56:09.857Z,26.80
2022-08-17T23:58:41.999Z,26.80
